This is the latest recevied weather packets stored in our database for station/object Waldburg. If no packets are shown the sender has not sent any weather packets the latest 10 day(s).
| Time | Temp. | Humidity | Pressure | Rain* | Wind** | Luminosity | Snow |
|---|---|---|---|---|---|---|---|
| 1788449530 | 23.33° C | 53% | 1019.7 hPa | 0 mm | - | - | - |
| 1788447730 | 23.89° C | 49% | 1019.7 hPa | 0 mm | - | - | - |
| 1788445930 | 23.89° C | 51% | 1019.9 hPa | 0 mm | - | - | - |
| 1788444130 | 23.33° C | 54% | 1020 hPa | 0 mm | - | - | - |
| 1788442331 | 24.44° C | 53% | 1020 hPa | 0 mm | - | - | - |
| 1788440530 | 23.33° C | 57% | 1020.1 hPa | 0 mm | - | - | - |
| 1788438735 | 22.78° C | 57% | 1020.3 hPa | 0 mm | - | - | - |
| 1788436935 | 22.78° C | 57% | 1020.6 hPa | 0 mm | - | - | - |
| 1788435130 | 23.33° C | 57% | 1020.8 hPa | 0 mm | - | - | - |
| 1788433330 | 23.33° C | 57% | 1020.9 hPa | 0 mm | - | - | - |
| 1788431530 | 22.78° C | 61% | 1021.1 hPa | 0 mm | - | - | - |
| 1788429731 | 22.78° C | 59% | 1021 hPa | 0 mm | - | - | - |
| 1788427930 | 22.22° C | 62% | 1021.1 hPa | 0 mm | - | - | - |
| 1788426130 | 21.67° C | 65% | 1021.4 hPa | 0 mm | - | - | - |
| 1788424330 | 20.56° C | 68% | 1021.4 hPa | 0 mm | - | - | - |
| 1788422531 | 19.44° C | 75% | 1021 hPa | 0 mm | - | - | - |
| 1788420736 | 17.78° C | 79% | 1021.2 hPa | 0 mm | - | - | - |
| 1788418930 | 16.67° C | 81% | 1021.5 hPa | 0 mm | - | - | - |
| 1788417130 | 15.56° C | 83% | 1021.4 hPa | 0 mm | - | - | - |
| 1788415329 | 15° C | 84% | 1021 hPa | 0 mm | - | - | - |
| 1788413529 | 15° C | 84% | 1020.6 hPa | 0 mm | - | - | - |
| 1788411729 | 15° C | 83% | 1020.8 hPa | 0 mm | - | - | - |
| 1788409929 | 15° C | 83% | 1020.4 hPa | 0 mm | - | - | - |
| 1788408130 | 15° C | 83% | 1020.5 hPa | 0 mm | - | - | - |
| 1788406331 | 15° C | 83% | 1020.3 hPa | 0 mm | - | - | - |
* Rain since midnight (hover to see other rain measurements)
** Current wind speed in m/s (hover to see current wind gust speed)